PWSweather.com
Personal Weather Stations
Station Observations
KA1WBH
West Island, Fairhaven, MA 02719

West IslandFairhaven, MA 02719

Lat: 41.5979996, Lon: -70.8330002

Elevation: 78

Station Type: Davis Vantage Pro II

Latest ConditionsUpdated 12:05:05 PM EDT Wednesday, Oct 1, 2014
Currently Today's Max Today's Min Today's Average
Temperature 60.1°F15.6°C 61.0°F16.1°C 57.5°F14.2°C 58.9°F14.9°C
Dew Point 59.8°F15.4°C 60.7°F15.9°C 56.9°F13.8°C 58.6°F14.8°C
Winds 9.0 mph NE14.5 kmh NE 12.0 mph ENE19.3 kmh ENE - 4.6 mph 7.4 kmh
Wind Gusts 15.0 mph24.1 kmh 18.0 mph29.0 kmh - -
Humidity 99% 99% 98% 99%
Pressure 30.04 in1017.3 mb 30.04 in1017.3 mb 29.98 in1015.2 mb -
Hour Temp Dew Point Humidity Winds Wind Gusts Pressure Precip Precip Rate Daily Precip Total
12:05 PM 60.1°F15.6°C 59.8°F15.4°C 99% 9.0 mph NE14.5 kmh NE 15.0 mph24.1 kmh 30.04 in1017.3 mb 0.28 in7.1 mm 0.00 in/hr0.0 mm/hr 0.69 in17.5 mm
11:50 AM 60.1°F15.6°C 59.5°F15.3°C 98% 11.0 mph E17.7 kmh E 18.0 mph29.0 kmh 30.04 in1017.3 mb 0.37 in9.4 mm 0.00 in/hr0.0 mm/hr 0.69 in17.5 mm
11:35 AM 60.9°F16.1°C 60.6°F15.9°C 99% 6.0 mph ENE9.7 kmh ENE 11.0 mph17.7 kmh 30.04 in1017.3 mb 0.42 in10.7 mm 0.44 in/hr11.2 mm/hr 0.69 in17.5 mm
11:20 AM 60.9°F16.1°C 60.6°F15.9°C 99% 3.0 mph E4.8 kmh E 10.0 mph16.1 kmh 30.04 in1017.3 mb 0.31 in7.9 mm 0.20 in/hr5.1 mm/hr 0.58 in14.7 mm
11:05 AM 61.0°F16.1°C 60.7°F15.9°C 99% 2.0 mph NE3.2 kmh NE 12.0 mph19.3 kmh 30.03 in1016.9 mb 0.26 in6.6 mm 0.13 in/hr3.3 mm/hr 0.53 in13.5 mm
10:50 AM 60.9°F16.1°C 60.6°F15.9°C 99% 6.0 mph NW9.7 kmh NW 12.0 mph19.3 kmh 30.03 in1016.9 mb 0.16 in4.1 mm 0.48 in/hr12.2 mm/hr 0.43 in10.9 mm
10:35 AM 60.9°F16.1°C 60.6°F15.9°C 99% 2.0 mph ENE3.2 kmh ENE 9.0 mph14.5 kmh 30.03 in1016.9 mb 0.04 in1.0 mm 0.06 in/hr1.5 mm/hr 0.31 in7.9 mm
10:25 AM 60.8°F16.0°C 60.5°F15.8°C 99% 5.0 mph ENE8.0 kmh ENE 6.0 mph9.7 kmh 30.03 in1016.9 mb 0.03 in0.8 mm 0.00 in/hr0.0 mm/hr 0.30 in7.6 mm
10:10 AM 60.8°F16.0°C 60.5°F15.8°C 99% 8.0 mph NE12.9 kmh NE 11.0 mph17.7 kmh 30.03 in1016.9 mb 0.03 in0.8 mm 0.00 in/hr0.0 mm/hr 0.30 in7.6 mm
09:55 AM 60.7°F15.9°C 60.4°F15.8°C 99% 3.0 mph E4.8 kmh E 11.0 mph17.7 kmh 30.02 in1016.6 mb 0.05 in1.3 mm 0.00 in/hr0.0 mm/hr 0.30 in7.6 mm
09:40 AM 60.5°F15.8°C 60.2°F15.7°C 99% 4.0 mph E6.4 kmh E 11.0 mph17.7 kmh 30.02 in1016.6 mb 0.10 in2.5 mm 0.00 in/hr0.0 mm/hr 0.30 in7.6 mm
09:25 AM 60.4°F15.8°C 60.1°F15.6°C 99% 5.0 mph NNE8.0 kmh NNE 13.0 mph20.9 kmh 30.01 in1016.3 mb 0.24 in6.1 mm 0.00 in/hr0.0 mm/hr 0.30 in7.6 mm
09:10 AM 60.4°F15.8°C 60.1°F15.6°C 99% 2.0 mph NNE3.2 kmh NNE 16.0 mph25.7 kmh 30.01 in1016.3 mb 0.27 in6.9 mm 0.01 in/hr0.3 mm/hr 0.30 in7.6 mm
08:55 AM 59.9°F15.5°C 59.6°F15.3°C 99% 4.0 mph NE6.4 kmh NE 12.0 mph19.3 kmh 30.01 in1016.3 mb 0.26 in6.6 mm 0.16 in/hr4.1 mm/hr 0.29 in7.4 mm
08:40 AM 59.4°F15.2°C 59.1°F15.1°C 99% 3.0 mph E4.8 kmh E 10.0 mph16.1 kmh 30.01 in1016.3 mb 0.22 in5.6 mm 0.52 in/hr13.2 mm/hr 0.25 in6.4 mm
08:25 AM 59.2°F15.1°C 58.9°F14.9°C 99% 4.0 mph NE6.4 kmh NE 10.0 mph16.1 kmh 30.02 in1016.6 mb 0.09 in2.3 mm 0.32 in/hr8.1 mm/hr 0.12 in3.0 mm
08:10 AM 59.0°F15.0°C 58.7°F14.8°C 99% 2.0 mph NE3.2 kmh NE 12.0 mph19.3 kmh 30.01 in1016.3 mb 0.01 in0.3 mm 0.01 in/hr0.3 mm/hr 0.04 in1.0 mm
07:55 AM 58.8°F14.9°C 58.5°F14.7°C 99% 2.0 mph NE3.2 kmh NE 13.0 mph20.9 kmh 30.01 in1016.3 mb 0.00 in0.0 mm 0.00 in/hr0.0 mm/hr 0.03 in0.8 mm
07:40 AM 58.7°F14.8°C 58.4°F14.7°C 99% 6.0 mph N9.7 kmh N 13.0 mph20.9 kmh 30.00 in1015.9 mb 0.01 in0.3 mm 0.00 in/hr0.0 mm/hr 0.03 in0.8 mm
07:25 AM 58.6°F14.8°C 58.3°F14.6°C 99% 3.0 mph E4.8 kmh E 11.0 mph17.7 kmh 30.00 in1015.9 mb 0.02 in0.5 mm 0.00 in/hr0.0 mm/hr 0.03 in0.8 mm
07:10 AM 58.6°F14.8°C 58.3°F14.6°C 99% 2.0 mph NNE3.2 kmh NNE 8.0 mph12.9 kmh 30.00 in1015.9 mb 0.03 in0.8 mm 0.00 in/hr0.0 mm/hr 0.03 in0.8 mm
06:55 AM 58.5°F14.7°C 58.2°F14.6°C 99% 9.0 mph NE14.5 kmh NE 11.0 mph17.7 kmh 30.00 in1015.9 mb 0.03 in0.8 mm 0.00 in/hr0.0 mm/hr 0.03 in0.8 mm
06:40 AM 58.5°F14.7°C 58.2°F14.6°C 99% 4.0 mph NNE6.4 kmh NNE 7.0 mph11.3 kmh 30.00 in1015.9 mb 0.03 in0.8 mm 0.00 in/hr0.0 mm/hr 0.03 in0.8 mm
06:25 AM 58.6°F14.8°C 58.3°F14.6°C 99% 4.0 mph E6.4 kmh E 7.0 mph11.3 kmh 30.00 in1015.9 mb 0.03 in0.8 mm 0.04 in/hr1.0 mm/hr 0.03 in0.8 mm
06:10 AM 58.6°F14.8°C 58.3°F14.6°C 99% 3.0 mph N4.8 kmh N 10.0 mph16.1 kmh 30.00 in1015.9 mb 0.02 in0.5 mm 0.01 in/hr0.3 mm/hr 0.02 in0.5 mm
05:55 AM 58.5°F14.7°C 58.2°F14.6°C 99% 2.0 mph NNE3.2 kmh NNE 10.0 mph16.1 kmh 30.00 in1015.9 mb 0.01 in0.3 mm 0.04 in/hr1.0 mm/hr 0.01 in0.3 mm
05:40 AM 58.5°F14.7°C 58.2°F14.6°C 99% 2.0 mph N3.2 kmh N 11.0 mph17.7 kmh 29.99 in1015.6 mb 0.00 in0.0 mm 0.00 in/hr0.0 mm/hr 0.00 in0.0 mm
05:25 AM 58.4°F14.7°C 58.1°F14.5°C 99% 3.0 mph ENE4.8 kmh ENE 11.0 mph17.7 kmh 29.99 in1015.6 mb 0.00 in0.0 mm 0.00 in/hr0.0 mm/hr 0.00 in0.0 mm
05:10 AM 58.3°F14.6°C 58.0°F14.4°C 99% 5.0 mph N8.0 kmh N 11.0 mph17.7 kmh 29.99 in1015.6 mb 0.00 in0.0 mm 0.00 in/hr0.0 mm/hr 0.00 in0.0 mm
04:55 AM 58.2°F14.6°C 57.9°F14.4°C 99% 4.0 mph NNE6.4 kmh NNE 11.0 mph17.7 kmh 29.99 in1015.6 mb 0.00 in0.0 mm 0.00 in/hr0.0 mm/hr 0.00 in0.0 mm
04:40 AM 58.2°F14.6°C 57.9°F14.4°C 99% 5.0 mph NE8.0 kmh NE 11.0 mph17.7 kmh 29.99 in1015.6 mb 0.00 in0.0 mm 0.00 in/hr0.0 mm/hr 0.00 in0.0 mm
04:25 AM 58.3°F14.6°C 58.0°F14.4°C 99% 6.0 mph NNE9.7 kmh NNE 12.0 mph19.3 kmh 29.99 in1015.6 mb 0.00 in0.0 mm 0.00 in/hr0.0 mm/hr 0.00 in0.0 mm
04:10 AM 58.2°F14.6°C 57.9°F14.4°C 99% 9.0 mph NE14.5 kmh NE 11.0 mph17.7 kmh 29.99 in1015.6 mb 0.00 in0.0 mm 0.00 in/hr0.0 mm/hr 0.00 in0.0 mm
03:55 AM 58.2°F14.6°C 57.9°F14.4°C 99% 5.0 mph E8.0 kmh E 16.0 mph25.7 kmh 29.99 in1015.6 mb 0.00 in0.0 mm 0.00 in/hr0.0 mm/hr 0.00 in0.0 mm
03:40 AM 58.1°F14.5°C 57.8°F14.3°C 99% 5.0 mph NE8.0 kmh NE 12.0 mph19.3 kmh 29.98 in1015.2 mb 0.00 in0.0 mm 0.00 in/hr0.0 mm/hr 0.00 in0.0 mm
03:25 AM 58.1°F14.5°C 57.8°F14.3°C 99% 3.0 mph NNE4.8 kmh NNE 12.0 mph19.3 kmh 29.98 in1015.2 mb 0.00 in0.0 mm 0.00 in/hr0.0 mm/hr 0.00 in0.0 mm
03:10 AM 58.2°F14.6°C 57.9°F14.4°C 99% 2.0 mph NNE3.2 kmh NNE 11.0 mph17.7 kmh 29.98 in1015.2 mb 0.00 in0.0 mm 0.00 in/hr0.0 mm/hr 0.00 in0.0 mm
02:55 AM 58.1°F14.5°C 57.8°F14.3°C 99% 12.0 mph ENE19.3 kmh ENE 13.0 mph20.9 kmh 29.99 in1015.6 mb 0.00 in0.0 mm 0.00 in/hr0.0 mm/hr 0.00 in0.0 mm
02:40 AM 58.0°F14.4°C 57.4°F14.1°C 98% 4.0 mph NE6.4 kmh NE 15.0 mph24.1 kmh 29.99 in1015.6 mb 0.00 in0.0 mm 0.00 in/hr0.0 mm/hr 0.00 in0.0 mm
02:25 AM 58.0°F14.4°C 57.4°F14.1°C 98% 5.0 mph E8.0 kmh E 14.0 mph22.5 kmh 29.99 in1015.6 mb 0.00 in0.0 mm 0.00 in/hr0.0 mm/hr 0.00 in0.0 mm
02:10 AM 58.0°F14.4°C 57.4°F14.1°C 98% 6.0 mph N9.7 kmh N 17.0 mph27.4 kmh 29.99 in1015.6 mb 0.00 in0.0 mm 0.00 in/hr0.0 mm/hr 0.00 in0.0 mm
01:55 AM 57.9°F14.4°C 57.3°F14.1°C 98% 7.0 mph NE11.3 kmh NE 13.0 mph20.9 kmh 29.99 in1015.6 mb 0.00 in0.0 mm 0.00 in/hr0.0 mm/hr 0.00 in0.0 mm
01:40 AM 57.8°F14.3°C 57.2°F14.0°C 98% 7.0 mph ENE11.3 kmh ENE 14.0 mph22.5 kmh 30.00 in1015.9 mb 0.00 in0.0 mm 0.00 in/hr0.0 mm/hr 0.00 in0.0 mm
01:25 AM 57.9°F14.4°C 57.3°F14.1°C 98% 6.0 mph ENE9.7 kmh ENE 17.0 mph27.4 kmh 29.99 in1015.6 mb 0.00 in0.0 mm 0.00 in/hr0.0 mm/hr 0.00 in0.0 mm
01:10 AM 57.7°F14.3°C 57.1°F13.9°C 98% 4.0 mph NNW6.4 kmh NNW 14.0 mph22.5 kmh 30.00 in1015.9 mb 0.00 in0.0 mm 0.00 in/hr0.0 mm/hr 0.00 in0.0 mm
12:55 AM 57.6°F14.2°C 57.0°F13.9°C 98% 1.0 mph NW1.6 kmh NW 12.0 mph19.3 kmh 30.00 in1015.9 mb 0.00 in0.0 mm 0.00 in/hr0.0 mm/hr 0.00 in0.0 mm
12:40 AM 57.6°F14.2°C 57.0°F13.9°C 98% 3.0 mph N4.8 kmh N 12.0 mph19.3 kmh 30.00 in1015.9 mb 0.00 in0.0 mm 0.00 in/hr0.0 mm/hr 0.00 in0.0 mm
12:25 AM 57.5°F14.2°C 56.9°F13.8°C 98% 7.0 mph ENE11.3 kmh ENE 11.0 mph17.7 kmh 30.01 in1016.3 mb 0.00 in0.0 mm 0.00 in/hr0.0 mm/hr 0.00 in0.0 mm
12:10 AM 57.5°F14.2°C 56.9°F13.8°C 98% 2.0 mph N3.2 kmh N 9.0 mph14.5 kmh 30.02 in1016.6 mb 0.00 in0.0 mm 0.00 in/hr0.0 mm/hr 0.00 in0.0 mm